Time;durP1;ratioP1;P1;durP2;ratioP2;P2;SDS_P1;SDS_P2;PMS_P1;PMS_P2;Temp;Humidity;BMP_temperature;BMP_pressure;BME280_temperature;BME280_humidity;BME280_pressure;Samples;Min_cycle;Max_cycle;Signal;HPM_P1;HPM_P2
2023/05/08 00:01:17;;;;;;;3.03;2.40;;;;;;;15.93;58.66;99742.97;5033218;28;20201;-69
2023/05/08 00:03:44;;;;;;;4.97;2.70;;;;;;;15.98;57.57;99747.41;5019377;28;20198;-69
2023/05/08 00:06:12;;;;;;;2.60;2.40;;;;;;;15.93;56.67;99741.91;5032894;28;20193;-70
2023/05/08 00:08:40;;;;;;;3.07;2.30;;;;;;;15.99;57.43;99734.84;5033002;28;20601;-69
2023/05/08 00:11:07;;;;;;;2.77;2.60;;;;;;;16.02;56.55;99732.53;5032869;28;20197;-70
2023/05/08 00:13:34;;;;;;;2.33;2.23;;;;;;;16.02;57.75;99736.25;5032138;28;20194;-69
2023/05/08 00:16:00;;;;;;;3.10;2.23;;;;;;;16.02;57.43;99733.56;5032695;28;20202;-69
2023/05/08 00:18:27;;;;;;;3.47;2.30;;;;;;;16.04;57.37;99740.34;5032924;28;20255;-71
2023/05/08 00:20:54;;;;;;;2.77;2.57;;;;;;;16.00;57.51;99738.34;5024983;28;20190;-71
2023/05/08 00:23:22;;;;;;;2.97;2.67;;;;;;;15.77;57.94;99739.81;5013024;28;20190;-69
2023/05/08 00:25:49;;;;;;;2.20;2.10;;;;;;;15.68;58.36;99735.81;5012748;28;20727;-70
2023/05/08 00:28:15;;;;;;;5.77;2.70;;;;;;;15.72;60.34;99731.66;5012710;28;20221;-70
2023/05/08 00:30:42;;;;;;;3.03;2.60;;;;;;;15.92;58.52;99727.94;5012538;28;20190;-71
2023/05/08 00:33:10;;;;;;;5.77;3.27;;;;;;;16.03;58.08;99733.34;5012920;28;20190;-71
2023/05/08 00:35:36;;;;;;;4.27;2.80;;;;;;;16.02;57.63;99737.06;5012975;28;20202;-71
2023/05/08 00:38:03;;;;;;;2.63;2.47;;;;;;;15.75;58.92;99741.94;5012832;28;20194;-71
2023/05/08 00:40:31;;;;;;;5.60;2.70;;;;;;;15.88;58.35;99732.09;5027466;28;20259;-71
2023/05/08 00:42:58;;;;;;;2.93;2.57;;;;;;;15.97;58.19;99733.44;5032179;28;20247;-71
2023/05/08 00:45:26;;;;;;;2.33;2.17;;;;;;;16.01;57.71;99734.63;5032663;28;20570;-70
2023/05/08 00:47:53;;;;;;;2.63;2.53;;;;;;;16.13;57.88;99738.19;5032080;28;20251;-71
2023/05/08 00:50:20;;;;;;;5.47;2.47;;;;;;;16.22;57.56;99740.34;5017885;28;20264;-71
2023/05/08 00:52:47;;;;;;;3.43;2.27;;;;;;;16.32;57.45;99745.13;5012605;28;20201;-71
2023/05/08 00:55:14;;;;;;;2.97;2.77;;;;;;;16.42;56.45;99748.13;5012669;28;20256;-71
2023/05/08 00:57:42;;;;;;;5.67;2.47;;;;;;;16.44;56.20;99746.84;5012515;28;20193;-71
2023/05/08 01:00:10;;;;;;;2.53;2.33;;;;;;;16.30;56.53;99755.28;5023521;28;20197;-71
2023/05/08 01:02:37;;;;;;;2.77;2.57;;;;;;;16.10;55.85;99760.06;5032257;28;20251;-72
2023/05/08 01:05:04;;;;;;;2.57;2.37;;;;;;;16.10;56.55;99754.69;5016474;28;20246;-70
2023/05/08 01:07:30;;;;;;;3.10;2.77;;;;;;;16.12;57.46;99755.31;5012243;28;20194;-71
2023/05/08 01:09:57;;;;;;;3.17;2.60;;;;;;;16.05;56.98;99763.41;5020785;28;20213;-71
2023/05/08 01:12:30;;;;;;;4.33;2.80;;;;;;;16.16;56.38;99768.03;5032284;28;20197;-70
2023/05/08 01:15:06;;;;;;;3.13;2.87;;;;;;;16.23;55.95;99767.94;5032053;28;20185;-71
2023/05/08 01:17:43;;;;;;;3.20;2.57;;;;;;;16.23;55.79;99765.25;5031912;28;20188;-71
2023/05/08 01:20:27;;;;;;;2.60;2.40;;;;;;;16.18;55.19;99773.16;5021696;28;20248;-71
2023/05/08 01:23:29;;;;;;;3.23;2.90;;;;;;;16.17;55.59;99776.88;5012456;28;20189;-71
2023/05/08 01:26:20;;;;;;;3.53;2.57;;;;;;;16.25;56.09;99773.91;5012080;28;20232;-71
2023/05/08 01:29:10;;;;;;;4.77;2.50;;;;;;;16.33;55.95;99768.22;5015498;28;20716;-71
2023/05/08 01:31:52;;;;;;;2.67;2.47;;;;;;;16.38;55.12;99768.38;5022072;28;20181;-72
2023/05/08 01:34:23;;;;;;;3.37;2.30;;;;;;;16.32;54.89;99772.75;5035719;28;20684;-71
2023/05/08 01:36:53;;;;;;;4.63;2.10;;;;;;;16.25;55.59;99758.63;5035862;28;20193;-71
2023/05/08 01:39:22;;;;;;;2.17;2.07;;;;;;;16.27;54.95;99769.13;5032473;28;21036;-71
2023/05/08 01:41:56;;;;;;;2.80;2.50;;;;;;;16.28;54.90;99760.84;5015894;28;20666;-71
2023/05/08 01:44:29;;;;;;;3.60;2.60;;;;;;;16.32;54.67;99777.28;5015801;28;20185;-71
2023/05/08 01:46:58;;;;;;;2.80;2.60;;;;;;;16.25;54.12;99769.34;5016142;28;20217;-71
2023/05/08 01:49:34;;;;;;;2.87;2.67;;;;;;;16.09;54.57;99763.78;5018144;28;20221;-70
2023/05/08 01:52:04;;;;;;;4.37;3.10;;;;;;;15.94;55.51;99773.00;5035949;28;20189;-70
2023/05/08 01:54:41;;;;;;;6.83;3.27;;;;;;;15.80;55.34;99763.50;5035672;28;20193;-70
2023/05/08 01:57:10;;;;;;;4.97;2.57;;;;;;;15.94;55.56;99773.00;5035799;28;20193;-70
2023/05/08 01:59:38;;;;;;;3.10;2.80;;;;;;;16.05;55.44;99767.97;5030735;28;20193;-71
2023/05/08 02:02:06;;;;;;;4.17;3.10;;;;;;;16.15;55.07;99776.28;5015864;28;20194;-71
2023/05/08 02:04:35;;;;;;;4.27;3.10;;;;;;;16.22;54.88;99774.34;5026555;28;20197;-71
2023/05/08 02:07:03;;;;;;;3.00;2.80;;;;;;;16.02;54.47;99775.41;5035200;28;20197;-70
2023/05/08 02:09:32;;;;;;;3.30;3.00;;;;;;;16.06;54.85;99769.59;5033844;28;20726;-71
2023/05/08 02:12:01;;;;;;;4.73;3.67;;;;;;;16.07;54.33;99765.88;5035071;28;20248;-70
2023/05/08 02:14:30;;;;;;;4.13;3.53;;;;;;;16.11;55.00;99767.06;5035400;28;20199;-69
2023/05/08 02:16:59;;;;;;;6.03;4.03;;;;;;;16.14;54.60;99755.88;5035022;28;20189;-71
2023/05/08 02:19:29;;;;;;;6.43;3.90;;;;;;;16.13;54.28;99759.63;5018720;28;20198;-71
2023/05/08 02:21:59;;;;;;;6.60;3.63;;;;;;;16.15;54.65;99768.25;5015727;28;20198;-70
2023/05/08 02:24:26;;;;;;;7.50;3.77;;;;;;;16.20;54.25;99765.72;5015528;28;20553;-71
2023/05/08 02:26:55;;;;;;;5.53;4.20;;;;;;;16.23;53.98;99765.25;5015382;28;20256;-70
2023/05/08 02:29:24;;;;;;;6.33;4.70;;;;;;;16.26;53.95;99772.84;5029546;28;20599;-70
2023/05/08 02:31:52;;;;;;;8.93;4.70;;;;;;;16.17;54.06;99764.28;5034709;28;20831;-70
2023/05/08 02:34:21;;;;;;;8.00;4.70;;;;;;;16.17;53.18;99774.22;5034892;28;20204;-70
2023/05/08 02:36:50;;;;;;;4.70;3.90;;;;;;;16.16;53.68;99764.53;5034961;28;20201;-70
2023/05/08 02:39:20;;;;;;;5.67;3.67;;;;;;;16.10;53.86;99770.78;5019449;28;20202;-70
2023/05/08 02:41:47;;;;;;;6.93;3.33;;;;;;;16.02;54.27;99763.03;5017400;28;20204;-69
2023/05/08 02:44:15;;;;;;;3.80;3.30;;;;;;;16.00;53.91;99779.34;5022686;28;20193;-69
2023/05/08 02:46:47;;;;;;;6.63;3.53;;;;;;;15.93;53.34;99775.09;5023294;28;20194;-68
2023/05/08 02:49:27;;;;;;;3.80;3.50;;;;;;;15.77;53.56;99777.31;5023039;28;20292;-69
2023/05/08 02:52:00;;;;;;;3.50;3.20;;;;;;;15.66;53.46;99770.03;5023345;28;20313;-71
2023/05/08 02:54:36;;;;;;;4.03;3.43;;;;;;;15.36;54.63;99770.97;5024045;28;20247;-70
2023/05/08 02:57:10;;;;;;;5.17;3.50;;;;;;;15.19;55.14;99767.16;5022597;28;20186;-71
2023/05/08 02:59:41;;;;;;;7.03;3.30;;;;;;;15.17;55.52;99775.41;5025401;28;20194;-70
2023/05/08 03:02:13;;;;;;;3.80;3.13;;;;;;;15.19;55.91;99778.69;5024509;28;20194;-69
2023/05/08 03:04:45;;;;;;;6.70;3.20;;;;;;;15.18;55.57;99771.69;5022058;28;20181;-71
2023/05/08 03:07:12;;;;;;;3.97;3.57;;;;;;;15.22;55.66;99772.06;5022615;28;20195;-69
2023/05/08 03:09:45;;;;;;;4.70;3.60;;;;;;;15.21;55.81;99775.78;5022907;28;20699;-69
2023/05/08 03:12:15;;;;;;;3.47;2.90;;;;;;;15.17;55.84;99779.94;5023063;28;20280;-69
2023/05/08 03:14:47;;;;;;;5.07;3.30;;;;;;;15.19;55.00;99786.72;5023727;28;20187;-70
2023/05/08 03:17:17;;;;;;;3.30;3.10;;;;;;;15.14;55.96;99780.38;5022156;28;20641;-70
2023/05/08 03:19:50;;;;;;;5.53;3.23;;;;;;;15.03;55.41;99783.75;5023644;28;20194;-70
2023/05/08 03:22:20;;;;;;;2.80;2.60;;;;;;;14.97;55.52;99779.28;5014750;28;20321;-70
2023/05/08 03:24:49;;;;;;;3.27;2.97;;;;;;;14.91;55.41;99786.31;5023387;28;20635;-70
2023/05/08 03:27:19;;;;;;;5.10;2.90;;;;;;;14.94;55.82;99790.41;5023755;28;20252;-70
2023/05/08 03:29:46;;;;;;;3.37;3.07;;;;;;;14.95;55.73;99786.72;5023367;28;20286;-68
2023/05/08 03:32:14;;;;;;;4.23;3.13;;;;;;;14.96;55.35;99796.38;5024318;28;20252;-69
2023/05/08 03:34:41;;;;;;;4.13;3.10;;;;;;;14.91;56.48;99794.31;5022999;28;20590;-69
2023/05/08 03:37:08;;;;;;;4.00;3.07;;;;;;;14.89;56.66;99796.41;5021316;28;20251;-69
2023/05/08 03:39:35;;;;;;;4.97;2.87;;;;;;;14.85;56.31;99797.03;5024367;28;20250;-69
2023/05/08 03:42:03;;;;;;;3.30;3.10;;;;;;;14.81;56.89;99796.66;5022504;28;20209;-68
2023/05/08 03:44:30;;;;;;;3.63;2.93;;;;;;;14.85;57.38;99799.72;5024037;28;20252;-69
2023/05/08 03:46:58;;;;;;;3.70;2.70;;;;;;;14.84;57.92;99800.75;5022259;28;20194;-70
2023/05/08 03:49:26;;;;;;;3.53;3.23;;;;;;;14.84;57.37;99800.75;5022823;28;20213;-69
2023/05/08 03:51:54;;;;;;;4.87;3.50;;;;;;;14.92;57.94;99804.00;5022436;28;20205;-70
2023/05/08 03:54:24;;;;;;;4.40;3.30;;;;;;;15.01;57.57;99808.06;5022242;28;20205;-68
2023/05/08 03:56:51;;;;;;;4.67;3.03;;;;;;;15.24;58.08;99802.94;5014161;28;20744;-69
2023/05/08 03:59:27;;;;;;;3.23;2.93;;;;;;;15.40;57.08;99806.97;5022598;28;20255;-68
2023/05/08 04:01:59;;;;;;;3.73;3.40;;;;;;;15.72;56.87;99813.84;5022582;28;20182;-70
2023/05/08 04:04:33;;;;;;;4.17;3.23;;;;;;;16.45;55.22;99817.41;5021426;28;20235;-69
2023/05/08 04:07:07;;;;;;;3.70;3.40;;;;;;;17.17;53.80;99822.53;5023447;28;20200;-70
2023/05/08 04:09:38;;;;;;;5.50;3.63;;;;;;;17.82;52.15;99826.84;5022519;28;20328;-72
2023/05/08 04:12:11;;;;;;;3.20;3.00;;;;;;;18.45;49.61;99819.63;5020662;28;20189;-71
2023/05/08 04:14:44;;;;;;;6.63;3.40;;;;;;;18.92;47.83;99827.31;5022127;28;20655;-70
2023/05/08 04:17:14;;;;;;;5.93;3.03;;;;;;;19.35;46.47;99829.41;5013401;28;20252;-70
2023/05/08 04:19:46;;;;;;;5.23;3.33;;;;;;;19.79;44.62;99825.78;5013401;28;20269;-69
2023/05/08 04:22:16;;;;;;;4.87;2.97;;;;;;;20.18;43.45;99808.59;5017994;28;20652;-69
2023/05/08 04:24:45;;;;;;;3.07;2.77;;;;;;;20.57;41.73;99823.63;5032890;28;20201;-70
2023/05/08 04:27:13;;;;;;;3.90;2.67;;;;;;;21.11;39.80;99830.72;5032510;28;20727;-70
2023/05/08 04:29:41;;;;;;;2.57;2.37;;;;;;;21.45;39.08;99837.53;5032235;28;20229;-71
2023/05/08 04:32:10;;;;;;;3.00;2.77;;;;;;;21.67;37.65;99832.81;5032379;28;20227;-68
2023/05/08 04:34:37;;;;;;;5.93;3.00;;;;;;;22.09;37.64;99836.38;5030387;28;20251;-69
2023/05/08 04:37:06;;;;;;;3.10;2.30;;;;;;;22.82;38.13;99835.38;5032588;28;20193;-68
2023/05/08 04:39:32;;;;;;;2.97;2.50;;;;;;;23.64;34.31;99831.41;5032693;28;20197;-68
2023/05/08 04:42:02;;;;;;;2.73;2.30;;;;;;;24.39;31.32;99839.38;5032248;28;20216;-68
2023/05/08 04:44:29;;;;;;;4.77;2.10;;;;;;;25.31;33.37;99827.00;5032650;28;20198;-69
2023/05/08 04:46:57;;;;;;;2.40;2.20;;;;;;;26.05;29.83;99835.59;5020905;28;20192;-68
2023/05/08 04:49:24;;;;;;;2.70;2.20;;;;;;;26.31;30.58;99845.09;5012794;28;20257;-67
2023/05/08 04:51:50;;;;;;;3.67;2.40;;;;;;;27.18;28.33;99839.06;5012288;28;20252;-68
2023/05/08 04:54:17;;;;;;;6.43;2.10;;;;;;;28.31;27.70;99839.31;5014701;28;20259;-68
2023/05/08 04:56:44;;;;;;;2.43;2.23;;;;;;;28.75;26.31;99836.78;5032307;28;20263;-68
2023/05/08 04:59:11;;;;;;;2.40;2.20;;;;;;;28.98;24.80;99832.97;5032024;28;20665;-70
2023/05/08 05:01:38;;;;;;;3.13;2.03;;;;;;;29.20;25.52;99828.38;5031695;28;20208;-70
2023/05/08 05:04:06;;;;;;;3.73;2.00;;;;;;;29.51;24.85;99817.47;5024657;28;20198;-71
2023/05/08 05:06:33;;;;;;;1.80;1.70;;;;;;;30.16;22.69;99823.22;5031889;28;20251;-68
2023/05/08 05:09:00;;;;;;;1.80;1.70;;;;;;;30.20;22.17;99825.00;5031950;28;20678;-67
2023/05/08 05:11:26;;;;;;;3.47;1.90;;;;;;;29.81;22.43;99824.97;5030376;28;20225;-68
2023/05/08 05:13:53;;;;;;;2.40;2.20;;;;;;;30.13;23.04;99827.38;5012302;28;20248;-68
2023/05/08 05:16:20;;;;;;;2.97;1.93;;;;;;;30.67;22.14;99835.19;5015454;28;20185;-67
2023/05/08 05:18:46;;;;;;;4.60;2.23;;;;;;;30.73;21.38;99822.94;5031837;28;20750;-67
2023/05/08 05:21:15;;;;;;;7.03;2.37;;;;;;;30.59;21.97;99827.72;5032059;28;20203;-67
2023/05/08 05:23:42;;;;;;;3.27;2.60;;;;;;;30.26;22.69;99812.78;5031778;28;20251;-67
2023/05/08 05:26:08;;;;;;;8.67;2.40;;;;;;;30.19;21.86;99806.97;5031506;28;20660;-67
2023/05/08 05:28:35;;;;;;;3.07;2.20;;;;;;;30.40;22.11;99818.97;5024371;28;20234;-67
2023/05/08 05:31:02;;;;;;;5.43;2.50;;;;;;;29.28;22.95;99815.88;5011883;28;20214;-68
2023/05/08 05:33:29;;;;;;;4.20;2.50;;;;;;;29.59;22.29;99807.75;5012215;28;20259;-68
2023/05/08 05:35:56;;;;;;;3.03;2.27;;;;;;;29.71;22.67;99811.53;5021663;28;20197;-67
2023/05/08 05:38:24;;;;;;;3.07;1.97;;;;;;;29.52;22.39;99796.41;5031654;28;20256;-67
2023/05/08 05:40:51;;;;;;;4.50;2.30;;;;;;;29.51;22.54;99800.25;5024639;28;20205;-67
2023/05/08 05:43:17;;;;;;;3.03;2.40;;;;;;;29.75;22.53;99800.75;5004444;28;20205;-70
2023/05/08 05:45:44;;;;;;;4.97;2.57;;;;;;;29.87;22.56;99810.00;5050681;28;20196;-68
2023/05/08 05:48:11;;;;;;;3.60;2.50;;;;;;;29.08;24.33;99799.94;5033234;28;20197;-67
2023/05/08 05:50:37;;;;;;;4.33;2.40;;;;;;;29.67;23.08;99804.25;5025242;28;20216;-67
2023/05/08 05:53:04;;;;;;;2.33;2.13;;;;;;;30.14;22.34;99798.06;5028073;28;20204;-67
2023/05/08 05:55:33;;;;;;;2.03;1.93;;;;;;;30.38;22.93;99804.75;5030345;28;20208;-68
2023/05/08 05:58:01;;;;;;;3.00;2.43;;;;;;;30.92;22.14;99793.28;5030344;28;20669;-68
2023/05/08 06:00:29;;;;;;;7.80;2.57;;;;;;;30.97;21.56;99793.13;5029296;28;20197;-68
2023/05/08 06:02:56;;;;;;;2.83;2.43;;;;;;;30.20;21.17;99789.38;5025624;28;20284;-71
2023/05/08 06:05:23;;;;;;;2.50;2.30;;;;;;;30.25;21.23;99791.97;5012086;28;20666;-70
2023/05/08 06:07:50;;;;;;;2.57;1.80;;;;;;;29.56;22.12;99787.22;5026109;28;20206;-67
2023/05/08 06:10:17;;;;;;;2.63;2.00;;;;;;;29.09;22.87;99787.88;5039370;28;20313;-67
2023/05/08 06:12:47;;;;;;;2.13;1.93;;;;;;;29.32;23.33;99785.97;5030819;28;20251;-68
2023/05/08 06:15:14;;;;;;;5.00;2.10;;;;;;;29.69;22.01;99791.88;5033728;28;20205;-68
2023/05/08 06:17:41;;;;;;;6.50;2.30;;;;;;;29.54;22.66;99783.19;5034481;28;20205;-68
2023/05/08 06:20:09;;;;;;;5.37;2.30;;;;;;;29.31;23.32;99787.09;5032760;28;20262;-70
2023/05/08 06:22:36;;;;;;;2.57;2.00;;;;;;;28.75;23.70;99785.63;5032573;28;20901;-68
2023/05/08 06:25:05;;;;;;;7.50;2.50;;;;;;;28.18;24.07;99782.75;5033890;28;20193;-67
2023/05/08 06:27:33;;;;;;;5.80;2.13;;;;;;;28.52;23.67;99777.66;5033747;28;20264;-66
2023/05/08 06:30:01;;;;;;;3.87;1.87;;;;;;;28.28;24.24;99777.88;5034806;28;20233;-66
2023/05/08 06:32:27;;;;;;;4.00;2.07;;;;;;;28.52;25.33;99780.41;5035017;28;20197;-66
2023/05/08 06:34:54;;;;;;;2.83;2.03;;;;;;;28.67;25.54;99777.34;5035142;28;20263;-66
2023/05/08 06:37:21;;;;;;;3.43;2.20;;;;;;;29.27;24.91;99773.19;5033675;28;20224;-67
2023/05/08 06:39:48;;;;;;;4.40;2.40;;;;;;;29.46;22.89;99776.56;5014945;28;20194;-67
2023/05/08 06:42:14;;;;;;;2.10;1.90;;;;;;;28.94;24.50;99764.38;5014533;28;20783;-68
2023/05/08 06:44:41;;;;;;;2.40;2.20;;;;;;;29.15;25.16;99770.19;5015258;28;20198;-67
2023/05/08 06:47:09;;;;;;;2.90;1.87;;;;;;;29.41;24.59;99763.00;5014533;28;20194;-67
2023/05/08 06:49:36;;;;;;;3.43;2.80;;;;;;;29.42;23.69;99774.72;5018962;28;20191;-66
2023/05/08 06:52:03;;;;;;;5.87;2.53;;;;;;;29.34;24.14;99768.09;5034119;28;20278;-67
2023/05/08 06:54:30;;;;;;;7.67;2.60;;;;;;;29.05;24.38;99765.00;5034561;28;20197;-66
2023/05/08 06:56:56;;;;;;;3.90;2.20;;;;;;;29.35;24.51;99757.97;5034088;28;20264;-67
2023/05/08 06:59:23;;;;;;;4.93;2.30;;;;;;;29.19;24.44;99754.78;5034239;28;20638;-70
2023/05/08 07:01:50;;;;;;;4.93;2.00;;;;;;;29.17;23.92;99757.84;5028645;28;20198;-67
2023/05/08 07:04:18;;;;;;;3.47;2.43;;;;;;;29.49;24.44;99748.56;5023398;28;20631;-67
2023/05/08 07:06:44;;;;;;;2.87;2.57;;;;;;;29.50;24.38;99754.81;5033906;28;20199;-67
2023/05/08 07:09:11;;;;;;;2.30;2.20;;;;;;;29.41;24.67;99757.53;5033999;28;20623;-67
2023/05/08 07:11:38;;;;;;;4.03;2.37;;;;;;;28.90;24.77;99746.16;5032698;28;20278;-68
2023/05/08 07:14:04;;;;;;;3.83;2.80;;;;;;;28.52;25.27;99744.88;5034267;28;20189;-67
2023/05/08 07:16:31;;;;;;;3.10;2.80;;;;;;;28.16;25.95;99736.59;5034074;28;20189;-68
2023/05/08 07:18:58;;;;;;;2.00;1.90;;;;;;;27.79;26.59;99746.88;5033680;28;20193;-69
2023/05/08 07:21:26;;;;;;;3.87;2.70;;;;;;;27.55;26.80;99740.75;5019617;28;20337;-68
2023/05/08 07:23:53;;;;;;;4.60;2.57;;;;;;;28.04;26.72;99738.19;5033604;28;20203;-68
2023/05/08 07:26:20;;;;;;;3.43;2.60;;;;;;;28.36;26.51;99741.63;5033672;28;20197;-68
2023/05/08 07:28:47;;;;;;;3.40;2.63;;;;;;;28.76;25.96;99735.28;5033124;28;20633;-67
2023/05/08 07:31:14;;;;;;;2.80;2.60;;;;;;;28.54;26.07;99728.97;5034127;28;20260;-66
2023/05/08 07:33:40;;;;;;;3.63;2.60;;;;;;;28.71;26.61;99729.13;5014296;28;20208;-68
2023/05/08 07:36:07;;;;;;;3.50;2.87;;;;;;;28.82;25.93;99711.34;5013608;28;20661;-67
2023/05/08 07:38:36;;;;;;;3.53;2.40;;;;;;;28.85;26.34;99738.09;5012834;28;20251;-68
2023/05/08 07:41:04;;;;;;;4.90;2.70;;;;;;;28.62;25.56;99734.50;5014021;28;20289;-66
2023/05/08 07:43:30;;;;;;;3.13;2.90;;;;;;;28.51;26.48;99735.06;5013345;28;20618;-67
2023/05/08 07:45:57;;;;;;;4.53;2.77;;;;;;;28.68;26.19;99732.47;5032175;28;20197;-68
2023/05/08 07:48:24;;;;;;;4.30;3.43;;;;;;;28.85;26.05;99729.88;5033599;28;20189;-68
2023/05/08 07:50:51;;;;;;;4.07;2.90;;;;;;;28.75;25.58;99732.84;5032812;28;20276;-67
2023/05/08 07:53:18;;;;;;;4.60;3.23;;;;;;;28.55;25.90;99725.13;5033410;28;20272;-66
2023/05/08 07:55:46;;;;;;;4.63;2.60;;;;;;;28.53;26.63;99713.66;5030103;28;20194;-67
2023/05/08 07:58:13;;;;;;;3.23;2.60;;;;;;;28.72;26.47;99711.59;5013076;28;20256;-69
2023/05/08 08:00:40;;;;;;;3.00;2.80;;;;;;;28.96;26.46;99714.84;5026252;28;20194;-69
2023/05/08 08:03:07;;;;;;;3.60;2.57;;;;;;;29.31;26.51;99713.19;5033159;28;20198;-68
2023/05/08 08:05:33;;;;;;;10.00;3.30;;;;;;;29.14;25.83;99711.13;5013997;28;20193;-69
2023/05/08 08:08:00;;;;;;;3.90;3.60;;;;;;;28.52;26.42;99698.38;5012880;28;20244;-71
2023/05/08 08:10:27;;;;;;;12.13;3.40;;;;;;;28.20;26.99;99693.06;5022199;28;20239;-71
2023/05/08 08:12:55;;;;;;;5.23;3.10;;;;;;;28.23;27.03;99693.28;5024186;28;20245;-72
2023/05/08 08:15:21;;;;;;;6.50;3.37;;;;;;;28.22;26.68;99701.78;5017243;28;20552;-73
2023/05/08 08:17:48;;;;;;;4.03;2.87;;;;;;;27.85;27.83;99702.00;5017573;28;20190;-73
2023/05/08 08:20:15;;;;;;;4.30;2.97;;;;;;;27.72;27.67;99700.06;5013137;28;20197;-73
2023/05/08 08:22:42;;;;;;;3.73;3.47;;;;;;;27.54;28.07;99690.84;5012839;28;20732;-74
2023/05/08 08:25:09;;;;;;;6.53;2.83;;;;;;;27.38;28.59;99691.41;5013061;28;20591;-72
2023/05/08 08:27:36;;;;;;;6.83;2.97;;;;;;;27.40;28.67;99684.53;5025843;28;20255;-74
2023/05/08 08:30:04;;;;;;;5.17;2.90;;;;;;;27.59;28.68;99687.19;5032934;28;20284;-74
2023/05/08 08:32:31;;;;;;;4.90;3.00;;;;;;;27.60;28.04;99683.38;5032267;28;20275;-74
2023/05/08 08:34:58;;;;;;;3.30;3.07;;;;;;;27.63;28.26;99682.75;5032224;28;20198;-72
2023/05/08 08:37:25;;;;;;;4.03;3.00;;;;;;;27.75;27.83;99669.41;5020665;28;20302;-74
2023/05/08 08:39:51;;;;;;;6.50;3.43;;;;;;;27.79;27.94;99676.69;5012560;28;20651;-74
2023/05/08 08:42:18;;;;;;;3.53;3.07;;;;;;;27.90;28.10;99680.88;5012889;28;20202;-73
2023/05/08 08:44:45;;;;;;;7.17;3.10;;;;;;;27.73;28.58;99671.66;5017498;28;20626;-74
2023/05/08 08:47:16;;;;;;;4.07;2.87;;;;;;;27.73;28.80;99671.66;5022962;28;20198;-74
2023/05/08 08:49:48;;;;;;;4.37;2.73;;;;;;;27.70;28.86;99673.06;5021423;28;20637;-74
2023/05/08 08:52:22;;;;;;;7.73;3.40;;;;;;;27.90;28.72;99678.16;5021304;28;20214;-73
2023/05/08 08:54:50;;;;;;;3.90;3.60;;;;;;;27.77;28.21;99661.72;5021909;28;20181;-75
2023/05/08 08:57:18;;;;;;;6.00;3.00;;;;;;;27.91;28.56;99662.53;5028773;28;20263;-73
2023/05/08 08:59:45;;;;;;;4.83;3.40;;;;;;;28.09;28.15;99654.22;5022283;28;20193;-73
2023/05/08 09:02:16;;;;;;;5.87;3.17;;;;;;;28.25;28.12;99651.97;5019917;28;20586;-73
2023/05/08 09:04:43;;;;;;;5.27;2.93;;;;;;;28.57;27.89;99654.53;5020937;28;20178;-74
2023/05/08 09:07:12;;;;;;;5.20;3.10;;;;;;;28.04;28.14;99656.25;5012651;28;20244;-73
2023/05/08 09:09:40;;;;;;;3.50;3.20;;;;;;;28.25;28.48;99654.69;5012475;28;20641;-74
2023/05/08 09:12:07;;;;;;;3.17;2.87;;;;;;;28.22;27.94;99647.91;5012416;28;20222;-74
2023/05/08 09:14:35;;;;;;;6.60;3.57;;;;;;;28.20;28.29;99649.34;5012257;28;20617;-73
2023/05/08 09:17:01;;;;;;;4.20;3.73;;;;;;;27.98;28.56;99641.91;5012560;28;20634;-75
2023/05/08 09:19:30;;;;;;;9.23;3.93;;;;;;;28.14;28.19;99645.13;5013391;28;20260;-72
2023/05/08 09:21:59;;;;;;;5.80;3.33;;;;;;;27.81;28.70;99632.69;5012409;28;20280;-72
2023/05/08 09:24:26;;;;;;;4.20;3.00;;;;;;;27.95;28.32;99630.78;5012373;28;20190;-73
2023/05/08 09:26:53;;;;;;;3.37;3.10;;;;;;;28.01;28.77;99624.13;5019939;28;20193;-72
2023/05/08 09:29:21;;;;;;;7.73;3.50;;;;;;;27.62;28.86;99616.44;5022342;28;20276;-72
2023/05/08 09:31:49;;;;;;;5.33;3.10;;;;;;;27.77;29.53;99607.13;5019800;28;20224;-77
2023/05/08 09:34:23;;;;;;;8.93;3.50;;;;;;;27.93;29.30;99602.97;5019630;28;20747;-73
2023/05/08 09:36:51;;;;;;;5.13;3.40;;;;;;;28.06;28.83;99599.41;5012486;28;20646;-65
2023/05/08 09:39:22;;;;;;;4.13;3.73;;;;;;;27.73;30.52;99595.19;5011623;28;20197;-67
2023/05/08 09:41:59;;;;;;;4.43;3.30;;;;;;;28.05;30.27;99592.34;5012321;28;20281;-65
2023/05/08 09:44:26;;;;;;;7.47;4.17;;;;;;;28.27;28.89;99589.63;5012245;28;20194;-64
2023/05/08 09:47:09;;;;;;;4.17;3.80;;;;;;;27.60;30.31;99574.19;5014623;28;20193;-66
2023/05/08 09:49:38;;;;;;;4.07;3.67;;;;;;;27.68;30.01;99576.19;5034746;28;20185;-67
2023/05/08 09:52:07;;;;;;;5.77;3.73;;;;;;;27.96;30.77;99577.75;5033643;28;20213;-66
2023/05/08 09:54:34;;;;;;;4.67;4.27;;;;;;;28.17;29.88;99568.81;5033450;28;20677;-67
2023/05/08 09:57:01;;;;;;;8.97;3.90;;;;;;;28.18;29.27;99578.63;5035775;28;20194;-69
2023/05/08 09:59:30;;;;;;;7.47;4.07;;;;;;;27.99;30.25;99572.53;5035541;28;20259;-67
2023/05/08 10:01:56;;;;;;;4.43;3.27;;;;;;;28.26;30.28;99564.22;5021407;28;20669;-67
2023/05/08 10:04:33;;;;;;;5.27;3.20;;;;;;;28.64;29.45;99567.41;5028058;28;20586;-68
2023/05/08 10:07:00;;;;;;;3.83;3.50;;;;;;;28.90;29.41;99554.69;5035436;28;20254;-68
2023/05/08 10:09:28;;;;;;;7.10;3.50;;;;;;;29.09;29.12;99556.13;5035308;28;20201;-68
2023/05/08 10:11:55;;;;;;;8.13;3.60;;;;;;;29.23;28.89;99550.53;5035340;28;20225;-68
2023/05/08 10:14:23;;;;;;;4.80;3.40;;;;;;;28.98;29.11;99553.94;5028643;28;20202;-68
2023/05/08 10:16:51;;;;;;;7.30;3.60;;;;;;;28.77;29.27;99556.41;5015788;28;20198;-67
2023/05/08 10:19:19;;;;;;;5.23;3.70;;;;;;;28.99;28.37;99547.34;5015035;28;20907;-66
2023/05/08 10:21:48;;;;;;;6.40;3.60;;;;;;;28.92;29.18;99538.78;5014981;28;20645;-66
2023/05/08 10:24:17;;;;;;;6.37;3.97;;;;;;;28.97;29.44;99544.13;5033278;28;20204;-66
2023/05/08 10:26:56;;;;;;;6.73;3.70;;;;;;;28.68;29.82;99538.34;5034595;28;20225;-67
2023/05/08 10:29:31;;;;;;;5.67;3.67;;;;;;;29.02;29.72;99531.13;5030436;28;20690;-66
2023/05/08 10:31:59;;;;;;;4.47;4.13;;;;;;;29.20;28.84;99532.03;5031432;28;20299;-67
2023/05/08 10:34:31;;;;;;;5.57;3.17;;;;;;;29.13;29.27;99523.44;5033629;28;20199;-65
2023/05/08 10:36:58;;;;;;;4.30;4.10;;;;;;;29.18;28.34;99526.03;5033026;28;20196;-68
2023/05/08 10:39:25;;;;;;;12.60;3.80;;;;;;;28.95;29.13;99525.28;5033156;28;20267;-66
2023/05/08 10:41:54;;;;;;;7.97;3.50;;;;;;;28.65;30.08;99522.53;5021343;28;20263;-66
2023/05/08 10:44:20;;;;;;;5.97;5.13;;;;;;;28.52;29.62;99517.97;5012667;28;20241;-66
2023/05/08 10:46:53;;;;;;;5.90;4.30;;;;;;;28.67;29.96;99512.13;5012651;28;20198;-67
2023/05/08 10:49:26;;;;;;;5.00;3.53;;;;;;;28.71;30.07;99513.88;5013637;28;20240;-66
2023/05/08 10:52:17;;;;;;;4.97;3.73;;;;;;;28.74;30.49;99512.44;5014067;28;20750;-67
2023/05/08 10:55:16;;;;;;;5.37;3.87;;;;;;;28.78;30.05;99517.00;5018741;28;20251;-67
2023/05/08 10:58:02;;;;;;;4.57;3.87;;;;;;;28.91;30.17;99512.56;5022159;28;20200;-69
2023/05/08 11:00:32;;;;;;;3.97;3.63;;;;;;;28.55;31.37;99517.34;5032005;28;20241;-67
2023/05/08 11:03:05;;;;;;;5.20;3.87;;;;;;;28.76;30.99;99504.75;5032931;28;20677;-67
2023/05/08 11:05:46;;;;;;;5.33;3.30;;;;;;;28.75;30.82;99508.63;5012334;28;20199;-69
2023/05/08 11:08:15;;;;;;;7.40;4.27;;;;;;;28.89;30.00;99495.63;5012680;28;20303;-68
2023/05/08 11:10:43;;;;;;;4.47;4.27;;;;;;;28.89;29.87;99503.84;5011044;28;20196;-68
2023/05/08 11:13:12;;;;;;;6.67;4.10;;;;;;;29.04;29.53;99500.72;5014064;28;20271;-66
2023/05/08 11:15:41;;;;;;;5.33;3.73;;;;;;;29.15;29.87;99502.03;5010903;28;20209;-66
2023/05/08 11:18:10;;;;;;;5.33;3.97;;;;;;;29.32;29.56;99502.13;5012592;28;20198;-66
2023/05/08 11:20:40;;;;;;;4.83;3.63;;;;;;;29.36;29.58;99494.88;5015246;28;20583;-67
2023/05/08 11:23:23;;;;;;;5.87;3.70;;;;;;;29.45;29.40;99495.69;5032801;28;20204;-66
2023/05/08 11:25:59;;;;;;;4.83;4.43;;;;;;;29.38;29.23;99500.81;5033819;28;20259;-66
2023/05/08 11:28:28;;;;;;;7.93;4.47;;;;;;;29.24;29.76;99487.25;5028749;28;20600;-65
2023/05/08 11:30:55;;;;;;;4.70;4.27;;;;;;;29.06;29.77;99482.06;5021767;28;20194;-66
2023/05/08 11:33:23;;;;;;;5.00;4.40;;;;;;;28.78;30.41;99494.28;5023973;28;20244;-66
2023/05/08 11:35:55;;;;;;;6.43;4.60;;;;;;;28.66;30.33;99488.59;5023927;28;20195;-65
2023/05/08 11:38:24;;;;;;;5.17;4.23;;;;;;;28.62;30.46;99484.88;5021222;28;20194;-66
2023/05/08 11:40:59;;;;;;;8.97;4.70;;;;;;;28.60;30.81;99473.47;5022584;28;20272;-66
2023/05/08 11:43:38;;;;;;;5.97;4.60;;;;;;;28.49;30.74;99474.84;5015775;28;20197;-65